createdAt,value
2022-10-07T00:01:06.204Z,101652.34
2022-10-07T00:06:13.011Z,101660.97
2022-10-07T00:11:18.635Z,101645.81
2022-10-07T00:16:24.473Z,101643.28
2022-10-07T00:21:29.381Z,101637.59
2022-10-07T00:26:35.124Z,101635.69
2022-10-07T00:31:39.412Z,101632.56
2022-10-07T00:36:43.440Z,101636.34
2022-10-07T00:41:50.639Z,101621.28
2022-10-07T00:46:55.330Z,101616.44
2022-10-07T00:51:59.077Z,101613.16
2022-10-07T00:57:04.133Z,101609.78
2022-10-07T01:02:07.889Z,101600.31
2022-10-07T01:07:11.013Z,101604.28
2022-10-07T01:12:22.271Z,101598.38
2022-10-07T01:17:32.904Z,101589.66
2022-10-07T01:22:45.861Z,101587.84
2022-10-07T01:27:54.517Z,101573.88
2022-10-07T01:33:02.967Z,101562.09
2022-10-07T01:38:09.153Z,101559.94
2022-10-07T01:43:16.726Z,101559.88
2022-10-07T01:48:19.701Z,101548.53
2022-10-07T01:53:31.937Z,101545.38
2022-10-07T01:58:51.431Z,101542.78
2022-10-07T02:04:16.889Z,101540.97
2022-10-07T02:09:28.570Z,101524.09
2022-10-07T02:14:38.725Z,101524.44
2022-10-07T02:19:47.103Z,101528.47
2022-10-07T02:24:54.435Z,101520.63
2022-10-07T02:30:04.440Z,101509.34
2022-10-07T02:35:16.385Z,101491.88
2022-10-07T02:40:19.838Z,101490.84
2022-10-07T02:45:30.185Z,101479.16
2022-10-07T02:50:42.376Z,101485.53
2022-10-07T02:55:46.086Z,101478.75
2022-10-07T03:00:58.020Z,101476.50
2022-10-07T03:06:01.742Z,101462.69
2022-10-07T03:11:05.916Z,101470.22
2022-10-07T03:16:10.246Z,101461.25
2022-10-07T03:21:13.600Z,101453.47
2022-10-07T03:26:19.172Z,101450.84
2022-10-07T03:31:24.957Z,101451.22
2022-10-07T03:36:31.307Z,101445.88
2022-10-07T03:41:34.312Z,101441.53
2022-10-07T03:46:40.158Z,101438.75
2022-10-07T03:51:43.918Z,101442.19
2022-10-07T03:56:47.269Z,101435.72
2022-10-07T04:01:52.339Z,101425.94
2022-10-07T04:06:55.223Z,101429.50
2022-10-07T04:11:58.857Z,101420.31
2022-10-07T04:17:03.164Z,101415.31
2022-10-07T04:22:08.813Z,101420.41
2022-10-07T04:27:28.323Z,101411.94
2022-10-07T04:32:38.347Z,101408.63
2022-10-07T04:37:43.365Z,101404.06
2022-10-07T04:43:04.542Z,101407.44
2022-10-07T04:48:09.057Z,101404.13
2022-10-07T04:53:15.245Z,101388.34
2022-10-07T04:58:21.125Z,101394.06
2022-10-07T05:03:27.066Z,101388.41
2022-10-07T05:08:30.116Z,101380.19
2022-10-07T05:13:34.246Z,101385.94
2022-10-07T05:18:39.931Z,101382.75
2022-10-07T05:23:46.514Z,101388.03
2022-10-07T05:28:53.572Z,101385.84
2022-10-07T05:34:03.713Z,101379.72
2022-10-07T05:39:07.202Z,101387.50
2022-10-07T05:44:20.858Z,101372.78
2022-10-07T05:49:27.806Z,101372.47
2022-10-07T05:54:32.757Z,101367.22
2022-10-07T05:59:36.044Z,101362.72
2022-10-07T06:04:43.125Z,101360.84
2022-10-07T06:10:03.737Z,101360.72
2022-10-07T06:15:09.521Z,101349.81
2022-10-07T06:20:15.184Z,101347.59
2022-10-07T06:25:18.741Z,101340.13
2022-10-07T06:30:22.870Z,101343.78
2022-10-07T06:35:27.197Z,101344.59
2022-10-07T06:40:31.286Z,101339.59
2022-10-07T06:45:34.977Z,101347.16
2022-10-07T06:50:39.882Z,101347.44
2022-10-07T06:55:42.841Z,101338.06
2022-10-07T07:00:49.844Z,101341.06
2022-10-07T07:05:55.023Z,101349.91
2022-10-07T07:11:04.200Z,101342.72
2022-10-07T07:16:07.621Z,101336.63
2022-10-07T07:21:11.933Z,101335.72
2022-10-07T07:26:15.692Z,101339.53
2022-10-07T07:31:18.931Z,101341.13
2022-10-07T07:36:26.627Z,101326.78
2022-10-07T07:41:33.537Z,101328.25
2022-10-07T07:46:41.255Z,101328.34
2022-10-07T07:51:45.829Z,101324.06
2022-10-07T07:56:55.048Z,101328.03
2022-10-07T08:01:59.147Z,101318.81
2022-10-07T08:07:03.914Z,101317.69
2022-10-07T08:12:07.382Z,101309.06
2022-10-07T08:17:10.456Z,101316.56
2022-10-07T08:22:17.726Z,101311.63
2022-10-07T08:27:22.906Z,101305.13
2022-10-07T08:32:25.827Z,101303.97
2022-10-07T08:37:30.055Z,101300.09
2022-10-07T08:42:38.276Z,101294.84
2022-10-07T08:47:44.279Z,101288.78
2022-10-07T08:52:53.376Z,101277.06
2022-10-07T08:58:11.715Z,101269.06
2022-10-07T09:03:25.961Z,101256.63
2022-10-07T09:15:32.080Z,101239.44
2022-10-07T09:20:42.095Z,101244.16
2022-10-07T09:25:45.358Z,101237.50
2022-10-07T09:30:49.556Z,101241.53
2022-10-07T09:35:57.543Z,101238.63
2022-10-07T09:41:19.462Z,101226.16
2022-10-07T09:46:36.987Z,101230.09
2022-10-07T09:51:40.041Z,101227.34
2022-10-07T09:56:45.101Z,101223.19
2022-10-07T10:01:57.762Z,101212.19
2022-10-07T10:07:02.665Z,101206.66
2022-10-07T10:12:14.140Z,101209.78
2022-10-07T10:17:24.533Z,101198.13
2022-10-07T10:22:30.432Z,101181.56
2022-10-07T10:27:40.624Z,101178.31
2022-10-07T10:33:11.064Z,101170.94
2022-10-07T10:38:33.156Z,101164.09
2022-10-07T10:43:51.153Z,101159.97
2022-10-07T10:49:06.920Z,101155.59
2022-10-07T10:54:23.808Z,101144.53
2022-10-07T10:59:44.199Z,101147.78
2022-10-07T11:04:54.115Z,101127.28
2022-10-07T11:10:00.770Z,101113.97
2022-10-07T11:15:14.740Z,101110.31
2022-10-07T11:20:26.103Z,101084.94
2022-10-07T11:25:35.209Z,101087.50
2022-10-07T11:30:46.049Z,101077.78
2022-10-07T11:35:52.904Z,101073.81
2022-10-07T11:40:59.880Z,101063.09
2022-10-07T11:46:11.726Z,101053.00
2022-10-07T11:51:23.561Z,101037.03
2022-10-07T11:56:28.309Z,101035.19
2022-10-07T12:01:47.683Z,101017.31
2022-10-07T12:07:28.270Z,100994.88
2022-10-07T12:12:51.653Z,100983.44
2022-10-07T12:17:55.558Z,100972.03
2022-10-07T12:23:38.174Z,100966.50
2022-10-07T12:29:00.498Z,100955.94
2022-10-07T12:34:11.739Z,100952.50
2022-10-07T12:39:37.225Z,100935.75
2022-10-07T12:44:51.250Z,100937.13
2022-10-07T12:49:58.570Z,100921.13
2022-10-07T12:55:04.361Z,100937.03
2022-10-07T13:00:14.771Z,100913.00
2022-10-07T13:12:21.438Z,100909.31
2022-10-07T13:17:35.471Z,100892.03
2022-10-07T13:22:45.334Z,100899.72
2022-10-07T13:27:53.765Z,100888.06
2022-10-07T13:33:14.002Z,100876.94
2022-10-07T13:38:25.162Z,100850.81
2022-10-07T13:43:29.865Z,100865.31
2022-10-07T13:48:35.286Z,100858.09
2022-10-07T13:53:38.785Z,100846.47
2022-10-07T13:58:41.675Z,100834.63
2022-10-07T14:04:22.858Z,100824.59
2022-10-07T14:09:36.747Z,100818.81
2022-10-07T14:14:41.917Z,100805.81
2022-10-07T14:19:53.405Z,100799.00
2022-10-07T14:24:59.628Z,100794.69
2022-10-07T14:30:02.362Z,100789.38
2022-10-07T14:35:21.690Z,100791.31
2022-10-07T14:40:25.641Z,100774.97
2022-10-07T14:45:28.433Z,100772.00
2022-10-07T14:50:32.625Z,100774.56
2022-10-07T14:55:35.813Z,100763.22
2022-10-07T15:00:39.740Z,100761.63
2022-10-07T15:05:44.236Z,100755.22
2022-10-07T15:10:46.968Z,100749.94
2022-10-07T15:15:49.991Z,100749.44
2022-10-07T15:20:58.163Z,100741.91
2022-10-07T15:26:02.448Z,100737.31
2022-10-07T15:31:06.784Z,100726.81
2022-10-07T15:36:11.320Z,100734.38
2022-10-07T15:41:29.905Z,100727.00
2022-10-07T15:46:33.029Z,100717.53
2022-10-07T15:51:37.473Z,100714.34
2022-10-07T15:56:40.636Z,100712.56
2022-10-07T16:01:43.425Z,100704.28
2022-10-07T16:06:51.397Z,100692.00
2022-10-07T16:11:54.206Z,100692.56
2022-10-07T16:16:59.918Z,100700.00
2022-10-07T16:22:04.048Z,100692.34
2022-10-07T16:27:06.862Z,100689.47
2022-10-07T16:32:11.320Z,100687.09
2022-10-07T16:37:15.904Z,100687.63
2022-10-07T16:42:18.673Z,100687.16
2022-10-07T16:47:21.413Z,100676.41
2022-10-07T16:52:26.198Z,100677.09
2022-10-07T16:57:30.944Z,100670.97
2022-10-07T17:02:33.720Z,100666.97
2022-10-07T17:07:37.877Z,100672.94
2022-10-07T17:12:40.613Z,100680.09
2022-10-07T17:17:43.727Z,100669.44
2022-10-07T17:22:48.085Z,100667.28
2022-10-07T17:27:51.956Z,100676.69
2022-10-07T17:32:54.796Z,100666.19
2022-10-07T17:37:59.323Z,100670.63
2022-10-07T17:43:04.521Z,100670.31
2022-10-07T17:48:07.956Z,100670.16
2022-10-07T17:53:12.090Z,100668.00
2022-10-07T17:58:15.240Z,100667.88
2022-10-07T18:03:18.061Z,100663.75
2022-10-07T18:08:22.453Z,100660.91
2022-10-07T18:13:42.523Z,100659.31
2022-10-07T18:18:45.772Z,100656.63
2022-10-07T18:23:49.977Z,100661.00
2022-10-07T18:28:53.162Z,100654.16
2022-10-07T18:33:57.403Z,100651.19
2022-10-07T18:39:01.473Z,100643.22
2022-10-07T18:44:04.681Z,100643.50
2022-10-07T18:49:09.281Z,100634.34
2022-10-07T18:54:13.829Z,100628.22
2022-10-07T18:59:16.820Z,100625.31
2022-10-07T19:04:20.410Z,100629.97
2022-10-07T19:09:25.413Z,100622.44
2022-10-07T19:14:31.043Z,100623.56
2022-10-07T19:19:34.179Z,100619.56
2022-10-07T19:24:58.275Z,100620.81
2022-10-07T19:30:01.173Z,100624.91
2022-10-07T19:35:04.084Z,100619.47
2022-10-07T19:40:09.373Z,100618.91
2022-10-07T19:45:14.238Z,100619.09
2022-10-07T19:50:17.224Z,100613.13
2022-10-07T19:55:21.964Z,100608.06
2022-10-07T20:00:25.746Z,100602.09
2022-10-07T20:05:31.521Z,100595.69
2022-10-07T20:10:39.282Z,100593.72
2022-10-07T20:15:43.576Z,100599.53
2022-10-07T20:20:46.329Z,100594.56
2022-10-07T20:25:50.507Z,100601.06
2022-10-07T20:30:53.316Z,100596.91
2022-10-07T20:35:56.350Z,100595.78
2022-10-07T20:41:17.929Z,100586.84
2022-10-07T20:46:20.736Z,100589.91
2022-10-07T20:51:23.753Z,100581.19
2022-10-07T20:56:27.853Z,100567.53
2022-10-07T21:01:30.791Z,100569.13
2022-10-07T21:06:33.665Z,100576.97
2022-10-07T21:11:38.525Z,100576.75
2022-10-07T21:16:41.398Z,100579.47
2022-10-07T21:21:44.291Z,100579.25
2022-10-07T21:26:48.445Z,100576.81
2022-10-07T21:31:53.094Z,100562.44
2022-10-07T21:36:56.957Z,100569.28
2022-10-07T21:42:01.821Z,100567.34
2022-10-07T21:47:05.004Z,100551.41
2022-10-07T21:52:07.917Z,100549.47
2022-10-07T21:57:12.472Z,100529.06
2022-10-07T22:02:15.305Z,100539.47
2022-10-07T22:07:34.893Z,100529.44
2022-10-07T22:12:39.063Z,100532.25
2022-10-07T22:17:41.853Z,100535.78
2022-10-07T22:22:44.681Z,100526.38
2022-10-07T22:27:50.934Z,100523.91
2022-10-07T22:32:53.666Z,100519.66
2022-10-07T22:37:57.317Z,100512.81
2022-10-07T22:43:01.480Z,100512.31
2022-10-07T22:48:04.359Z,100508.03
2022-10-07T22:53:07.108Z,100503.31
2022-10-07T22:58:11.052Z,100501.06
2022-10-07T23:03:13.888Z,100498.03
2022-10-07T23:08:16.726Z,100492.91
2022-10-07T23:13:20.687Z,100489.63
2022-10-07T23:18:23.536Z,100483.41
2022-10-07T23:23:26.616Z,100477.78
2022-10-07T23:28:32.540Z,100471.78
2022-10-07T23:33:36.238Z,100474.84
2022-10-07T23:38:44.463Z,100468.38
2022-10-07T23:43:49.148Z,100469.09
2022-10-07T23:48:52.065Z,100458.09
2022-10-07T23:53:56.493Z,100464.06
2022-10-07T23:59:01.720Z,100459.78
